Manitou Springs, Colorado
Current Conditions -  °F | °C
As of 6:56 PM on Wednesday 22 Oct 2014 (Local Time) from KCWN Reporting Station
Broken Clouds Broken Clouds  
Wind Chill: 59°   Ceiling: 12000
Heat Index: 59°   Visibility: 10mi
Dew Point: 35°   Wind: 7mph
Humidity: 41%   Direction: 200°SSW
Pressure: 30.17"   Gusts: NA
Location:  38.86°N, 104.92°W
Report Text: KCWN 230056Z AUTO 20006KT 10SM FEW095 BKN120 15/02 A3017 RMK AO2 SLP168 T01500017
Loading
Personal Weather Stations






























Interactive Weather Map
Tropical Storm Tracking
New forecast layout! Learn more

10-Day Weather Forecast

Advertisements
Track Severe Weather on mobile